Time;durP1;ratioP1;P1;durP2;ratioP2;P2;SDS_P1;SDS_P2;PMS_P1;PMS_P2;Temp;Humidity;BMP_temperature;BMP_pressure;BME280_temperature;BME280_humidity;BME280_pressure;Samples;Min_cycle;Max_cycle;Signal;HPM_P1;HPM_P2
2022/07/01 00:01:12;;;;;;;7.88;5.45;;;17.10;99.90;;;;;;5223925;28;20448;-75
2022/07/01 00:03:49;;;;;;;8.45;5.20;;;17.10;99.90;;;;;;5214265;28;20028;-80
2022/07/01 00:06:20;;;;;;;7.38;5.60;;;16.70;99.90;;;;;;5216676;28;20025;-75
2022/07/01 00:08:51;;;;;;;8.07;5.07;;;16.70;99.90;;;;;;5206298;28;20021;-76
2022/07/01 00:11:23;;;;;;;10.27;4.93;;;17.10;99.90;;;;;;5223860;28;20071;-76
2022/07/01 00:13:54;;;;;;;5.85;5.10;;;17.00;99.90;;;;;;5214725;28;20033;-76
2022/07/01 00:16:25;;;;;;;8.05;5.53;;;17.00;99.90;;;;;;5214308;28;20432;-81
2022/07/01 00:18:56;;;;;;;7.57;5.95;;;16.90;99.90;;;;;;5220956;28;20065;-75
2022/07/01 00:21:27;;;;;;;7.18;5.63;;;17.00;99.90;;;;;;5211177;28;20049;-75
2022/07/01 00:23:57;;;;;;;10.40;5.38;;;16.90;99.90;;;;;;5214401;28;20061;-76
2022/07/01 00:26:28;;;;;;;8.40;4.85;;;16.80;99.90;;;;;;5221073;28;20025;-74
2022/07/01 00:28:59;;;;;;;6.55;5.00;;;16.90;99.90;;;;;;5226250;28;20365;-76
2022/07/01 00:31:30;;;;;;;9.05;4.50;;;16.90;99.90;;;;;;5220985;28;20066;-76
2022/07/01 00:34:01;;;;;;;6.50;4.45;;;16.90;99.90;;;;;;5216144;28;20036;-75
2022/07/01 00:36:32;;;;;;;6.78;5.03;;;16.60;99.90;;;;;;5215989;28;20021;-74
2022/07/01 00:39:03;;;;;;;10.27;4.97;;;16.60;99.90;;;;;;5224571;28;20029;-86
2022/07/01 00:41:34;;;;;;;7.90;5.15;;;16.40;99.90;;;;;;5212558;28;20036;-86
2022/07/01 00:44:05;;;;;;;7.93;5.15;;;16.50;99.90;;;;;;5216912;28;20116;-75
2022/07/01 00:46:36;;;;;;;8.38;5.18;;;16.50;99.90;;;;;;5219845;28;20013;-75
2022/07/01 00:49:07;;;;;;;6.88;5.10;;;16.50;99.90;;;;;;5211149;28;20092;-75
2022/07/01 00:51:38;;;;;;;6.57;5.30;;;16.40;99.90;;;;;;5227029;28;20041;-86
2022/07/01 00:54:10;;;;;;;6.53;4.93;;;16.40;99.90;;;;;;5215698;28;20465;-75
2022/07/01 00:56:41;;;;;;;10.38;5.00;;;16.50;99.90;;;;;;5221913;28;20522;-81
2022/07/01 00:59:12;;;;;;;7.13;4.95;;;16.50;99.90;;;;;;5210969;28;20033;-80
2022/07/01 01:01:43;;;;;;;7.40;5.03;;;16.60;99.90;;;;;;5220944;28;20037;-75
2022/07/01 01:04:14;;;;;;;6.32;5.10;;;16.50;99.90;;;;;;5217696;28;20017;-75
2022/07/01 01:06:45;;;;;;;6.55;4.82;;;16.40;99.90;;;;;;5210652;28;20026;-75
2022/07/01 01:09:16;;;;;;;5.05;4.32;;;16.50;99.90;;;;;;5222959;28;20025;-76
2022/07/01 01:11:47;;;;;;;6.07;4.60;;;16.60;99.90;;;;;;5212532;28;20028;-86
2022/07/01 01:14:21;;;;;;;4.97;4.47;;;16.40;99.90;;;;;;5215980;28;20026;-84
2022/07/01 01:16:53;;;;;;;5.50;4.72;;;16.50;99.90;;;;;;5223481;28;20025;-83
2022/07/01 01:19:24;;;;;;;9.20;4.68;;;16.40;99.90;;;;;;5210855;28;20143;-85
2022/07/01 01:21:55;;;;;;;5.63;4.68;;;16.50;99.90;;;;;;5226942;28;20139;-76
2022/07/01 01:24:26;;;;;;;6.60;4.30;;;16.20;99.90;;;;;;5214683;28;20045;-76
2022/07/01 01:26:57;;;;;;;7.32;4.68;;;16.40;99.90;;;;;;5222500;28;20128;-75
2022/07/01 01:29:28;;;;;;;5.55;4.60;;;16.50;99.90;;;;;;5209893;28;20028;-75
2022/07/01 01:31:59;;;;;;;7.25;4.88;;;16.40;99.90;;;;;;5218164;28;20476;-81
2022/07/01 01:34:29;;;;;;;7.68;5.00;;;16.30;99.90;;;;;;5219636;28;20025;-77
2022/07/01 01:37:00;;;;;;;9.18;4.57;;;16.30;99.90;;;;;;5210406;28;20397;-77
2022/07/01 01:39:31;;;;;;;6.68;4.35;;;16.30;99.90;;;;;;5222148;28;20385;-75
2022/07/01 01:42:06;;;;;;;6.32;4.50;;;16.30;99.90;;;;;;5216069;28;20112;-83
2022/07/01 01:44:37;;;;;;;6.63;4.07;;;16.30;99.90;;;;;;5211640;28;20032;-75
2022/07/01 01:47:07;;;;;;;5.22;4.10;;;16.30;99.90;;;;;;5221262;28;20025;-75
2022/07/01 01:49:38;;;;;;;4.97;4.25;;;16.30;99.90;;;;;;5212222;28;20393;-78
2022/07/01 01:52:09;;;;;;;5.10;4.60;;;16.00;99.90;;;;;;5224911;28;20041;-74
2022/07/01 01:54:40;;;;;;;6.13;4.15;;;16.00;99.90;;;;;;5212024;28;20030;-76
2022/07/01 01:57:11;;;;;;;4.85;3.83;;;16.00;99.90;;;;;;5222573;28;20033;-75
2022/07/01 01:59:42;;;;;;;6.70;4.20;;;16.20;99.90;;;;;;5212897;28;20017;-75
2022/07/01 02:02:12;;;;;;;5.97;3.97;;;16.10;99.90;;;;;;5225929;28;20500;-75
2022/07/01 02:04:43;;;;;;;4.53;4.10;;;16.00;99.90;;;;;;5225424;28;20016;-81
2022/07/01 02:07:15;;;;;;;4.72;3.83;;;16.20;99.90;;;;;;5208738;28;20144;-74
2022/07/01 02:09:46;;;;;;;5.68;4.25;;;16.00;99.90;;;;;;5219535;28;20013;-79
2022/07/01 02:12:17;;;;;;;5.68;3.97;;;16.00;99.90;;;;;;5217402;28;20050;-75
2022/07/01 02:14:48;;;;;;;5.85;4.57;;;16.10;99.90;;;;;;5211429;28;20105;-76
2022/07/01 02:17:18;;;;;;;7.13;4.00;;;16.10;99.90;;;;;;5222339;28;20047;-74
2022/07/01 02:19:49;;;;;;;5.53;4.40;;;15.80;99.90;;;;;;5205990;28;20038;-83
2022/07/01 02:22:20;;;;;;;7.55;4.57;;;15.90;99.90;;;;;;5206161;28;20084;-75
2022/07/01 02:24:51;;;;;;;4.43;4.03;;;15.70;99.90;;;;;;5222347;28;20342;-84
2022/07/01 02:27:23;;;;;;;8.27;3.92;;;15.80;99.90;;;;;;5224031;28;20428;-84
2022/07/01 02:29:54;;;;;;;6.97;3.95;;;15.80;99.90;;;;;;5218056;28;20037;-86
2022/07/01 02:32:25;;;;;;;7.18;4.20;;;15.80;99.90;;;;;;5217834;28;20037;-85
2022/07/01 02:34:56;;;;;;;8.63;4.45;;;15.80;99.90;;;;;;5209780;28;20465;-84
2022/07/01 02:37:27;;;;;;;4.20;3.78;;;15.90;99.90;;;;;;5225438;28;20456;-84
2022/07/01 02:39:58;;;;;;;6.00;3.80;;;15.90;99.90;;;;;;5217153;28;20047;-75
2022/07/01 02:42:34;;;;;;;6.53;4.13;;;15.80;99.90;;;;;;5227293;28;20025;-75
2022/07/01 02:45:08;;;;;;;6.10;4.05;;;15.70;99.90;;;;;;5212037;28;20049;-85
2022/07/01 02:47:40;;;;;;;5.47;3.72;;;15.60;99.90;;;;;;5223549;28;20021;-74
2022/07/01 02:50:13;;;;;;;4.90;3.97;;;15.90;99.90;;;;;;5218523;28;20025;-84
2022/07/01 02:52:45;;;;;;;8.15;4.45;;;15.90;99.90;;;;;;5227708;28;20441;-74
2022/07/01 02:55:16;;;;;;;6.75;3.83;;;16.00;99.90;;;;;;5212989;28;20415;-75
2022/07/01 02:57:51;;;;;;;7.30;3.67;;;15.80;99.90;;;;;;5220822;28;20025;-84
2022/07/01 03:00:22;;;;;;;4.35;3.58;;;15.90;99.90;;;;;;5221164;28;20017;-75
2022/07/01 03:02:53;;;;;;;6.30;3.63;;;15.70;99.90;;;;;;5213138;28;20087;-74
2022/07/01 03:05:24;;;;;;;4.10;3.75;;;15.90;99.90;;;;;;5228191;28;20013;-84
2022/07/01 03:07:54;;;;;;;8.32;3.80;;;15.90;99.90;;;;;;5220866;28;20039;-75
2022/07/01 03:10:26;;;;;;;7.35;3.30;;;15.90;99.90;;;;;;5219736;28;20049;-79
2022/07/01 03:12:59;;;;;;;8.30;4.10;;;15.80;99.90;;;;;;5228417;28;20364;-76
2022/07/01 03:15:30;;;;;;;6.47;3.70;;;15.70;99.90;;;;;;5212424;28;20440;-78
2022/07/01 03:18:01;;;;;;;6.40;4.20;;;15.90;99.90;;;;;;5218629;28;20057;-76
2022/07/01 03:20:31;;;;;;;7.30;3.95;;;16.00;99.90;;;;;;5220553;28;20112;-76
2022/07/01 03:23:02;;;;;;;5.38;3.70;;;16.10;99.90;;;;;;5227905;28;20041;-82
2022/07/01 03:25:35;;;;;;;5.75;3.40;;;16.10;99.90;;;;;;5212622;28;20075;-86
2022/07/01 03:28:07;;;;;;;4.70;3.33;;;16.10;99.90;;;;;;5219266;28;20025;-77
2022/07/01 03:30:37;;;;;;;6.13;4.15;;;16.10;99.90;;;;;;5221280;28;20025;-77
2022/07/01 03:33:08;;;;;;;5.65;4.00;;;16.00;99.90;;;;;;5210667;28;20033;-75
2022/07/01 03:35:40;;;;;;;4.80;3.88;;;16.20;99.90;;;;;;5222504;28;20022;-86
2022/07/01 03:38:12;;;;;;;9.38;3.80;;;16.10;99.90;;;;;;5218380;28;20032;-82
2022/07/01 03:40:42;;;;;;;6.18;4.00;;;16.20;99.90;;;;;;5213756;28;20045;-86
2022/07/01 03:43:13;;;;;;;5.47;4.20;;;16.50;99.90;;;;;;5223274;28;20034;-76
2022/07/01 03:45:44;;;;;;;10.02;4.40;;;16.50;99.90;;;;;;5213863;28;20111;-76
2022/07/01 03:48:16;;;;;;;5.65;4.05;;;16.40;99.90;;;;;;5217296;28;20025;-85
2022/07/01 03:50:47;;;;;;;4.22;3.80;;;16.50;99.90;;;;;;5223686;28;20067;-86
2022/07/01 03:56:08;;;;;;;8.45;4.20;;;16.70;99.90;;;;;;5228498;28;20377;-85
2022/07/01 03:58:38;;;;;;;7.10;3.88;;;16.70;99.90;;;;;;5214102;28;20025;-83
2022/07/01 04:01:09;;;;;;;7.03;4.07;;;17.00;99.90;;;;;;5208612;28;20025;-76
2022/07/01 04:17:08;;;;;;;;;;;16.90;99.90;;;;;;5308076;27;20484;-73
2022/07/01 04:19:39;;;;;;;4.35;3.40;;;17.60;99.90;;;;;;5282588;28;20581;-78
2022/07/01 04:25:00;;;;;;;3.78;3.30;;;17.80;99.90;;;;;;5298331;28;20027;-74
2022/07/01 04:27:31;;;;;;;4.90;3.28;;;18.00;99.90;;;;;;5305542;28;20546;-71
2022/07/01 04:30:03;;;;;;;7.10;3.83;;;18.20;99.90;;;;;;5303941;28;20018;-72
2022/07/01 04:32:34;;;;;;;4.95;3.22;;;18.50;99.90;;;;;;5304836;28;20454;-71
2022/07/01 04:35:05;;;;;;;8.35;3.42;;;18.50;99.90;;;;;;5288827;28;20018;-73
2022/07/01 04:37:36;;;;;;;3.65;2.90;;;18.50;99.90;;;;;;5287260;28;20467;-73
2022/07/01 04:40:08;;;;;;;5.10;3.20;;;18.60;99.90;;;;;;5285596;28;20095;-74
2022/07/01 04:42:38;;;;;;;4.70;2.90;;;18.90;99.90;;;;;;5281055;28;20028;-74
2022/07/01 04:45:10;;;;;;;3.55;2.85;;;18.70;99.90;;;;;;5285628;28;20051;-73
2022/07/01 04:47:40;;;;;;;7.07;3.20;;;18.90;99.90;;;;;;5285570;28;20039;-72
2022/07/01 04:50:12;;;;;;;5.63;2.58;;;19.50;99.90;;;;;;5278444;28;20008;-71
2022/07/01 04:52:43;;;;;;;5.90;2.90;;;19.30;99.90;;;;;;5285392;28;20027;-73
2022/07/01 04:55:14;;;;;;;5.40;2.90;;;19.50;99.90;;;;;;5282643;28;20371;-74
2022/07/01 04:57:44;;;;;;;5.68;2.83;;;19.60;99.90;;;;;;5283433;28;20442;-81
2022/07/01 05:00:15;;;;;;;3.78;2.58;;;20.00;99.90;;;;;;5284744;28;20024;-81
2022/07/01 05:02:46;;;;;;;6.15;2.50;;;20.40;99.90;;;;;;5284769;28;20685;-81
2022/07/01 05:05:17;;;;;;;3.65;2.60;;;20.30;99.90;;;;;;5284325;28;20031;-82
2022/07/01 05:07:48;;;;;;;2.83;2.03;;;20.40;99.90;;;;;;5284650;28;20413;-73
2022/07/01 05:10:19;;;;;;;4.50;2.40;;;20.40;99.90;;;;;;5280616;28;20024;-74
2022/07/01 05:12:50;;;;;;;3.95;2.33;;;20.70;99.90;;;;;;5266079;28;20024;-74
2022/07/01 05:15:20;;;;;;;4.32;2.50;;;21.00;99.90;;;;;;5284892;28;20116;-75
2022/07/01 05:23:30;;;;;;;4.72;2.70;;;21.90;99.90;;;;;;5270725;28;20143;-71
2022/07/01 05:26:01;;;;;;;4.90;2.30;;;22.60;99.90;;;;;;5270957;28;20103;-75
2022/07/01 05:28:31;;;;;;;7.07;2.10;;;22.70;99.90;;;;;;5270550;28;20027;-71
2022/07/01 05:31:02;;;;;;;4.60;2.05;;;23.00;99.90;;;;;;5268761;28;20459;-72
2022/07/01 05:33:33;;;;;;;6.57;2.28;;;23.30;99.90;;;;;;5268426;28;20020;-72
2022/07/01 05:36:04;;;;;;;5.22;1.90;;;23.50;99.90;;;;;;5268473;28;20489;-80
2022/07/01 05:38:35;;;;;;;6.55;1.90;;;23.60;99.90;;;;;;5269346;28;20504;-78
2022/07/01 05:41:06;;;;;;;5.75;2.28;;;23.50;99.90;;;;;;5264968;28;20012;-80
2022/07/01 05:43:37;;;;;;;4.93;1.92;;;23.70;99.90;;;;;;5267997;28;20444;-71
2022/07/01 05:46:08;;;;;;;5.45;1.50;;;24.00;99.90;;;;;;5267163;28;20043;-72
2022/07/01 05:48:39;;;;;;;3.75;1.73;;;24.20;99.90;;;;;;5269261;28;20380;-73
2022/07/01 05:51:09;;;;;;;7.80;1.95;;;24.40;99.90;;;;;;5265953;28;20012;-74
2022/07/01 05:53:42;;;;;;;5.22;1.77;;;24.30;99.90;;;;;;5266502;28;20027;-78
2022/07/01 05:56:14;;;;;;;7.70;1.83;;;24.50;99.90;;;;;;5268027;28;20019;-81
2022/07/01 05:58:45;;;;;;;6.00;1.80;;;24.70;99.90;;;;;;5269894;28;20024;-72
2022/07/01 06:01:16;;;;;;;6.63;1.60;;;24.60;99.90;;;;;;5270067;28;20028;-73
2022/07/01 06:03:46;;;;;;;8.63;1.75;;;24.90;99.90;;;;;;5267135;28;20095;-72
2022/07/01 06:06:19;;;;;;;9.85;1.70;;;25.00;99.90;;;;;;5261887;28;20040;-81
2022/07/01 06:08:49;;;;;;;4.65;1.95;;;24.90;99.90;;;;;;5259330;28;20066;-81
2022/07/01 06:11:20;;;;;;;5.25;2.08;;;25.20;99.90;;;;;;5269215;28;20028;-71
2022/07/01 06:13:51;;;;;;;6.93;1.70;;;25.30;99.90;;;;;;5251629;28;20016;-73
2022/07/01 06:16:22;;;;;;;7.13;1.40;;;25.20;99.90;;;;;;5251439;28;20075;-77
2022/07/01 06:18:53;;;;;;;5.22;1.33;;;25.30;99.90;;;;;;5268537;28;20016;-80
2022/07/01 06:21:24;;;;;;;8.38;1.90;;;25.40;99.90;;;;;;5264912;28;20024;-71
2022/07/01 06:23:54;;;;;;;6.65;1.48;;;25.50;99.90;;;;;;5269093;28;20023;-72
2022/07/01 06:26:25;;;;;;;7.50;1.45;;;25.70;99.90;;;;;;5268475;28;20036;-72
2022/07/01 06:28:56;;;;;;;9.48;1.45;;;26.00;99.90;;;;;;5267434;28;20034;-72
2022/07/01 06:31:27;;;;;;;9.85;1.80;;;25.90;99.90;;;;;;5269493;28;20425;-75
2022/07/01 06:33:58;;;;;;;9.20;1.60;;;25.80;99.90;;;;;;5261186;28;20012;-80
2022/07/01 06:36:29;;;;;;;6.22;1.45;;;25.70;99.90;;;;;;5247385;28;20042;-74
2022/07/01 06:39:00;;;;;;;74.47;5.65;;;25.90;99.90;;;;;;5267187;28;20099;-72
2022/07/01 06:41:31;;;;;;;39.70;4.07;;;26.10;99.90;;;;;;5268803;28;20032;-81
2022/07/01 06:44:04;;;;;;;17.23;2.45;;;26.10;99.90;;;;;;5267578;28;20036;-76
2022/07/01 06:46:35;;;;;;;7.63;1.90;;;26.40;99.90;;;;;;5268513;28;20048;-74
2022/07/01 06:49:06;;;;;;;9.27;1.35;;;26.30;99.90;;;;;;5268693;28;20016;-71
2022/07/01 06:51:37;;;;;;;9.30;1.70;;;26.40;99.90;;;;;;5261843;28;20032;-71
2022/07/01 06:54:08;;;;;;;4.88;1.30;;;26.40;99.90;;;;;;5268862;28;20020;-72
2022/07/01 06:56:39;;;;;;;7.70;1.40;;;26.50;99.90;;;;;;5264222;28;20529;-78
2022/07/01 06:59:10;;;;;;;8.13;1.60;;;26.50;99.90;;;;;;5267492;28;20039;-72
2022/07/01 07:01:41;;;;;;;6.90;1.42;;;26.70;99.90;;;;;;5268884;28;20380;-72
2022/07/01 07:04:12;;;;;;;3.47;1.27;;;26.60;99.90;;;;;;5261947;28;20558;-82
2022/07/01 07:06:43;;;;;;;8.07;1.30;;;26.60;99.90;;;;;;5267577;28;20028;-72
2022/07/01 07:09:14;;;;;;;5.10;1.50;;;26.70;99.90;;;;;;5261144;28;20024;-79
2022/07/01 07:11:45;;;;;;;3.10;1.38;;;26.80;99.90;;;;;;5264400;28;20036;-76
2022/07/01 07:14:16;;;;;;;6.63;1.70;;;27.00;99.90;;;;;;5267149;28;20020;-72
2022/07/01 07:16:47;;;;;;;5.07;1.63;;;26.80;99.90;;;;;;5263457;28;20457;-73
2022/07/01 07:19:18;;;;;;;7.43;1.23;;;26.80;99.90;;;;;;5265902;28;20069;-76
2022/07/01 07:21:49;;;;;;;4.57;1.35;;;27.00;99.90;;;;;;5262360;28;20024;-72
2022/07/01 07:24:20;;;;;;;4.68;1.33;;;27.20;99.90;;;;;;5264762;28;20049;-72
2022/07/01 07:26:50;;;;;;;6.15;1.40;;;27.10;99.90;;;;;;5265455;28;20767;-74
2022/07/01 07:29:21;;;;;;;6.97;1.35;;;27.20;99.90;;;;;;5250022;28;20349;-80
2022/07/01 07:31:52;;;;;;;7.68;1.40;;;27.50;99.90;;;;;;5250197;28;20031;-80
2022/07/01 07:34:23;;;;;;;3.83;1.88;;;27.40;99.90;;;;;;5249787;28;20023;-80
2022/07/01 07:36:54;;;;;;;5.95;1.55;;;27.30;99.90;;;;;;5268014;28;20451;-77
2022/07/01 07:39:25;;;;;;;9.00;1.27;;;27.40;99.90;;;;;;5250283;28;20032;-79
2022/07/01 07:41:56;;;;;;;2.65;1.10;;;27.50;99.90;;;;;;5268248;28;20098;-79
2022/07/01 07:44:27;;;;;;;4.95;1.40;;;27.40;99.90;;;;;;5249909;28;20036;-78
2022/07/01 07:46:58;;;;;;;6.80;1.25;;;27.50;99.90;;;;;;5268254;28;20066;-79
2022/07/01 07:49:29;;;;;;;3.75;1.30;;;27.40;99.90;;;;;;5268077;28;20387;-80
2022/07/01 07:52:00;;;;;;;6.55;1.42;;;27.70;99.90;;;;;;5265902;28;20031;-82
2022/07/01 07:54:31;;;;;;;4.00;1.20;;;27.80;99.90;;;;;;5265867;28;20021;-73
2022/07/01 07:57:02;;;;;;;6.18;1.55;;;27.50;99.90;;;;;;5267744;28;20024;-72
2022/07/01 07:59:34;;;;;;;7.07;1.63;;;27.70;99.90;;;;;;5267338;28;20024;-75
2022/07/01 08:02:05;;;;;;;10.88;1.50;;;27.40;99.90;;;;;;5223903;28;20041;-78
2022/07/01 08:04:36;;;;;;;4.85;1.13;;;28.00;99.90;;;;;;5223863;28;20079;-74
2022/07/01 08:07:07;;;;;;;5.05;1.33;;;28.20;99.90;;;;;;5223549;28;20535;-73
2022/07/01 08:09:37;;;;;;;3.78;1.10;;;27.80;99.90;;;;;;5223681;28;20025;-77
2022/07/01 08:12:08;;;;;;;5.15;1.40;;;28.10;99.90;;;;;;5207129;28;20091;-77
2022/07/01 08:14:39;;;;;;;4.13;1.20;;;28.20;99.90;;;;;;5206575;28;20025;-80
2022/07/01 08:17:10;;;;;;;4.80;1.33;;;28.20;99.90;;;;;;5223613;28;20502;-73
2022/07/01 08:19:41;;;;;;;7.95;1.63;;;28.60;99.90;;;;;;5221789;28;20048;-72
2022/07/01 08:22:12;;;;;;;12.50;1.70;;;28.50;99.90;;;;;;5223077;28;20742;-76
2022/07/01 08:24:42;;;;;;;6.70;1.50;;;28.00;99.90;;;;;;5237556;28;20033;-79
2022/07/01 08:27:13;;;;;;;8.35;1.15;;;28.20;99.90;;;;;;5220656;28;20045;-72
2022/07/01 08:29:44;;;;;;;2.70;1.10;;;28.60;99.90;;;;;;5220489;28;20100;-79
2022/07/01 08:32:16;;;;;;;9.15;1.05;;;28.50;99.90;;;;;;5228374;28;20044;-73
2022/07/01 08:34:46;;;;;;;4.68;1.17;;;28.50;99.90;;;;;;5260230;28;20012;-72
2022/07/01 08:37:17;;;;;;;7.90;2.08;;;28.60;99.90;;;;;;5259586;28;20024;-77
2022/07/01 08:39:48;;;;;;;4.13;1.17;;;28.50;99.90;;;;;;5260513;28;20046;-79
2022/07/01 08:42:19;;;;;;;3.88;1.20;;;28.50;99.90;;;;;;5259059;28;20032;-79
2022/07/01 08:44:50;;;;;;;7.25;1.38;;;28.80;99.90;;;;;;5261734;28;20655;-72
2022/07/01 08:47:20;;;;;;;4.90;1.15;;;28.70;99.90;;;;;;5259567;28;20036;-73
2022/07/01 08:49:51;;;;;;;4.18;1.30;;;28.70;99.90;;;;;;5262324;28;20020;-72
2022/07/01 08:52:22;;;;;;;6.03;1.20;;;29.00;99.90;;;;;;5269138;28;20111;-72
2022/07/01 08:54:53;;;;;;;5.25;1.52;;;29.00;99.90;;;;;;5271185;28;20406;-73
2022/07/01 08:57:24;;;;;;;6.88;1.88;;;28.90;99.90;;;;;;5251914;28;20031;-79
2022/07/01 09:00:05;;;;;;;3.15;1.33;;;29.10;99.90;;;;;;5271073;28;20020;-80
2022/07/01 09:02:56;;;;;;;16.25;1.73;;;28.60;99.90;;;;;;5270864;28;20561;-78
2022/07/01 09:05:29;;;;;;;3.45;1.27;;;28.80;99.90;;;;;;5270656;28;20157;-72
2022/07/01 09:08:05;;;;;;;5.47;1.05;;;29.00;99.90;;;;;;5270723;28;20028;-72
2022/07/01 09:10:37;;;;;;;3.50;1.20;;;28.80;99.90;;;;;;5271014;28;20020;-78
2022/07/01 09:13:10;;;;;;;6.07;1.30;;;29.20;99.90;;;;;;5270914;28;20637;-74
2022/07/01 09:15:41;;;;;;;3.53;1.50;;;28.90;99.90;;;;;;5270534;28;20048;-76
2022/07/01 09:18:15;;;;;;;6.68;1.40;;;28.90;99.90;;;;;;5252570;28;20020;-72
2022/07/01 09:20:50;;;;;;;5.38;1.33;;;28.80;99.90;;;;;;5270824;28;20419;-76
2022/07/01 09:23:20;;;;;;;8.55;1.40;;;29.20;99.90;;;;;;5270729;28;20048;-72
2022/07/01 09:25:51;;;;;;;8.48;1.40;;;29.50;99.90;;;;;;5268535;28;20055;-72
2022/07/01 09:28:26;;;;;;;4.95;1.50;;;29.10;99.90;;;;;;5280800;28;20043;-76
2022/07/01 09:30:58;;;;;;;10.25;1.45;;;28.90;99.90;;;;;;5270600;28;20032;-73
2022/07/01 09:33:29;;;;;;;3.22;1.40;;;28.70;99.90;;;;;;5280790;28;20028;-72
2022/07/01 09:36:00;;;;;;;6.22;1.65;;;29.10;99.90;;;;;;5269332;28;20027;-73
2022/07/01 09:38:31;;;;;;;3.95;1.30;;;28.80;99.90;;;;;;5270214;28;20020;-74
2022/07/01 09:41:06;;;;;;;9.25;1.33;;;29.00;99.90;;;;;;5270532;28;20050;-75
2022/07/01 09:43:38;;;;;;;7.68;1.55;;;29.60;99.90;;;;;;5249128;28;20429;-83
2022/07/01 09:46:11;;;;;;;3.88;1.10;;;29.70;99.90;;;;;;5262874;28;20040;-86
2022/07/01 09:48:45;;;;;;;4.38;1.45;;;29.40;99.90;;;;;;5269934;28;20024;-80
2022/07/01 09:51:16;;;;;;;7.45;1.40;;;29.50;99.90;;;;;;5270182;28;20020;-74
2022/07/01 09:53:47;;;;;;;3.50;1.20;;;30.10;99.90;;;;;;5270317;28;20024;-85
2022/07/01 09:56:19;;;;;;;5.10;1.30;;;29.20;99.90;;;;;;5251949;28;20020;-73
2022/07/01 09:58:50;;;;;;;9.48;1.20;;;29.80;99.90;;;;;;5270320;28;20027;-82
2022/07/01 10:01:23;;;;;;;10.68;1.52;;;29.80;99.90;;;;;;5253895;28;20033;-73
2022/07/01 10:03:55;;;;;;;8.23;1.63;;;29.70;99.90;;;;;;5269787;28;20459;-80
2022/07/01 10:06:48;;;;;;;4.88;1.30;;;29.60;99.90;;;;;;5269567;28;20535;-72
2022/07/01 10:09:42;;;;;;;9.90;2.10;;;29.80;99.90;;;;;;5251514;28;20056;-77
2022/07/01 10:12:30;;;;;;;6.22;1.25;;;30.10;99.90;;;;;;5268919;28;20032;-81
2022/07/01 10:15:04;;;;;;;7.05;1.48;;;30.00;99.90;;;;;;5269490;28;20150;-83
2022/07/01 10:17:44;;;;;;;3.05;1.38;;;30.40;99.90;;;;;;5254858;28;20040;-83
2022/07/01 10:20:25;;;;;;;5.35;1.30;;;30.10;99.90;;;;;;5269662;28;20022;-79
2022/07/01 10:23:07;;;;;;;5.20;1.30;;;30.20;99.90;;;;;;5251464;28;20068;-81
2022/07/01 10:25:49;;;;;;;9.32;1.77;;;30.50;99.90;;;;;;5269164;28;20024;-80
2022/07/01 10:28:28;;;;;;;6.43;1.58;;;30.30;99.90;;;;;;5250994;28;20111;-82
2022/07/01 10:31:01;;;;;;;3.80;0.90;;;30.60;99.90;;;;;;5269383;28;20395;-78
2022/07/01 10:33:41;;;;;;;5.30;1.70;;;30.00;99.90;;;;;;5269225;28;20021;-80
2022/07/01 10:36:19;;;;;;;3.78;1.40;;;30.20;99.90;;;;;;5269385;28;20027;-79
2022/07/01 10:39:09;;;;;;;6.38;1.60;;;29.70;99.90;;;;;;5268417;28;20099;-77
2022/07/01 10:41:53;;;;;;;3.67;1.45;;;30.10;99.90;;;;;;5268107;28;20073;-81
2022/07/01 10:44:26;;;;;;;3.85;1.40;;;29.80;99.90;;;;;;5267918;28;20518;-80
2022/07/01 10:47:06;;;;;;;5.85;1.63;;;29.80;99.90;;;;;;5250540;28;20028;-76
2022/07/01 10:49:37;;;;;;;6.85;1.52;;;29.80;99.90;;;;;;5268806;28;20016;-72
2022/07/01 10:52:11;;;;;;;6.63;1.73;;;29.80;99.90;;;;;;5268802;28;20031;-76
2022/07/01 10:54:45;;;;;;;3.28;1.42;;;30.20;99.90;;;;;;5268642;28;20023;-77
2022/07/01 10:57:15;;;;;;;10.35;1.60;;;29.80;99.90;;;;;;5268685;28;20047;-75
2022/07/01 11:00:21;;;;;;;4.80;1.40;;;30.20;99.90;;;;;;5268779;28;20024;-76
2022/07/01 11:02:52;;;;;;;5.50;1.30;;;29.90;99.90;;;;;;5243117;28;20509;-79
2022/07/01 11:05:24;;;;;;;6.10;1.75;;;30.10;99.90;;;;;;5268423;28;20081;-77
2022/07/01 11:07:55;;;;;;;2.88;1.50;;;30.20;99.90;;;;;;5268084;28;20039;-78
2022/07/01 11:10:26;;;;;;;4.00;1.50;;;30.10;99.90;;;;;;5268397;28;20024;-72
2022/07/01 11:12:59;;;;;;;7.18;1.67;;;29.80;99.90;;;;;;5250277;28;20039;-78
2022/07/01 11:15:30;;;;;;;4.95;1.40;;;30.40;99.90;;;;;;5249379;28;20407;-77
2022/07/01 11:18:02;;;;;;;4.53;1.50;;;29.60;99.90;;;;;;5268542;28;20012;-73
2022/07/01 11:20:33;;;;;;;7.50;1.77;;;30.00;99.90;;;;;;5248584;28;20028;-77
2022/07/01 11:23:04;;;;;;;8.75;1.60;;;30.10;99.90;;;;;;5267637;28;20069;-76
2022/07/01 11:25:34;;;;;;;6.68;1.60;;;30.60;99.90;;;;;;5266824;28;20040;-78
2022/07/01 11:28:05;;;;;;;4.07;1.20;;;30.50;99.90;;;;;;5249881;28;20008;-78
2022/07/01 11:30:36;;;;;;;4.43;1.70;;;30.10;99.90;;;;;;5267637;28;20096;-78
2022/07/01 11:33:09;;;;;;;6.20;1.77;;;30.60;99.90;;;;;;5267004;28;20043;-77
2022/07/01 11:41:24;;;;;;;;;;;30.50;99.90;;;;;;5268412;28;20027;-72
2022/07/01 11:43:55;;;;;;;6.03;1.60;;;30.70;99.90;;;;;;5267649;28;19915;-78
2022/07/01 11:46:26;;;;;;;4.82;1.20;;;30.60;99.90;;;;;;5267622;28;20040;-81
2022/07/01 11:48:57;;;;;;;7.68;1.48;;;30.60;99.90;;;;;;5249530;28;20024;-80
2022/07/01 11:51:29;;;;;;;3.47;1.52;;;30.80;99.90;;;;;;5267498;28;20020;-77
2022/07/01 11:54:00;;;;;;;5.75;1.15;;;31.40;99.90;;;;;;5267825;28;20486;-80
2022/07/01 11:56:34;;;;;;;5.78;1.23;;;30.30;99.90;;;;;;5267461;28;20103;-73
2022/07/01 11:59:05;;;;;;;3.13;1.08;;;30.80;99.90;;;;;;5267932;28;20029;-72
2022/07/01 12:01:40;;;;;;;3.20;1.15;;;31.10;99.90;;;;;;5267766;28;20028;-73
2022/07/01 12:04:14;;;;;;;8.07;1.27;;;31.30;99.90;;;;;;5267952;28;20031;-72
2022/07/01 12:06:46;;;;;;;4.38;1.20;;;31.00;99.90;;;;;;5267468;28;20060;-75
2022/07/01 12:09:19;;;;;;;5.28;1.17;;;31.20;99.90;;;;;;5267787;28;20463;-73
2022/07/01 12:11:51;;;;;;;5.63;1.23;;;30.60;99.90;;;;;;5267750;28;20035;-72
2022/07/01 12:14:30;;;;;;;6.80;1.30;;;30.60;99.90;;;;;;5267596;28;20020;-78
2022/07/01 12:17:04;;;;;;;6.28;1.40;;;31.00;99.90;;;;;;5267399;28;20051;-73
2022/07/01 12:19:48;;;;;;;4.53;1.42;;;30.40;99.90;;;;;;5267419;28;20031;-80
2022/07/01 12:22:26;;;;;;;5.47;1.50;;;30.50;99.90;;;;;;5267406;28;20026;-80
2022/07/01 12:25:08;;;;;;;5.60;1.45;;;31.00;99.90;;;;;;5267628;28;20063;-79
2022/07/01 12:27:40;;;;;;;7.38;1.20;;;30.80;99.90;;;;;;5251811;28;20024;-77
2022/07/01 12:30:22;;;;;;;3.15;1.35;;;30.10;99.90;;;;;;5253512;28;20672;-78
2022/07/01 12:32:53;;;;;;;9.77;1.30;;;30.50;99.90;;;;;;5253646;28;20062;-77
2022/07/01 12:35:37;;;;;;;5.72;1.50;;;30.70;99.90;;;;;;5253144;28;20028;-78
2022/07/01 12:38:15;;;;;;;11.90;1.20;;;30.70;99.90;;;;;;5253477;28;20016;-81
2022/07/01 12:40:46;;;;;;;5.05;1.20;;;31.00;99.90;;;;;;5270755;28;20036;-75
2022/07/01 12:43:33;;;;;;;4.28;1.10;;;30.40;99.90;;;;;;5271396;28;20020;-79
2022/07/01 12:46:04;;;;;;;7.85;1.40;;;30.40;99.90;;;;;;5271256;28;20102;-74
2022/07/01 12:48:48;;;;;;;7.50;1.30;;;31.10;99.90;;;;;;5271284;28;20554;-72
2022/07/01 12:51:19;;;;;;;5.72;1.30;;;30.80;99.90;;;;;;5271346;28;20126;-74
2022/07/01 12:53:50;;;;;;;3.75;1.40;;;31.10;99.90;;;;;;5271319;28;20348;-73
2022/07/01 12:56:26;;;;;;;7.22;1.52;;;30.80;99.90;;;;;;5271250;28;20038;-73
2022/07/01 12:58:58;;;;;;;6.30;1.67;;;30.70;99.90;;;;;;5271216;28;20502;-75
2022/07/01 13:01:31;;;;;;;6.35;1.30;;;30.70;99.90;;;;;;5271089;28;20041;-79
2022/07/01 13:04:02;;;;;;;2.45;1.50;;;30.90;99.90;;;;;;5269697;28;20415;-72
2022/07/01 13:06:33;;;;;;;5.75;1.40;;;31.20;99.90;;;;;;5269799;28;20155;-74
2022/07/01 13:09:04;;;;;;;7.30;1.50;;;30.90;99.90;;;;;;5271214;28;20028;-74
2022/07/01 13:11:35;;;;;;;8.07;1.45;;;30.90;99.90;;;;;;5252333;28;20049;-73
2022/07/01 13:14:06;;;;;;;5.80;1.48;;;31.00;99.90;;;;;;5252817;28;20058;-78
2022/07/01 13:16:37;;;;;;;3.67;1.35;;;31.20;99.90;;;;;;5270411;28;20434;-76
2022/07/01 13:19:08;;;;;;;5.72;1.60;;;31.50;99.90;;;;;;5270762;28;20019;-79
2022/07/01 13:21:38;;;;;;;8.77;2.00;;;30.70;99.90;;;;;;5270607;28;20059;-78
2022/07/01 13:24:09;;;;;;;5.00;1.50;;;30.60;99.90;;;;;;5252642;28;20455;-78
2022/07/01 13:26:40;;;;;;;3.33;1.23;;;31.00;99.90;;;;;;5270545;28;20115;-78
2022/07/01 13:29:11;;;;;;;5.10;1.75;;;30.60;99.90;;;;;;5270720;28;20020;-73
2022/07/01 13:31:42;;;;;;;5.35;1.60;;;30.60;99.90;;;;;;5270488;28;20020;-73
2022/07/01 13:34:13;;;;;;;10.98;1.70;;;31.10;99.90;;;;;;5270440;28;20016;-73
2022/07/01 13:36:44;;;;;;;9.07;1.83;;;30.90;99.90;;;;;;5269999;28;20336;-71
2022/07/01 13:39:14;;;;;;;5.28;1.83;;;30.40;99.90;;;;;;5251765;28;20028;-75
2022/07/01 13:41:46;;;;;;;7.30;1.52;;;30.20;99.90;;;;;;5253587;28;20004;-80
2022/07/01 13:44:17;;;;;;;6.43;1.60;;;31.10;99.90;;;;;;5270186;28;20036;-73